This is the latest recevied weather packets stored in our database for station/object EC2UT-13. If no packets are shown the sender has not sent any weather packets the latest 10 day(s).
| Time | Temp. | Humidity | Pressure | Rain* | Wind** | Luminosity | Snow |
|---|---|---|---|---|---|---|---|
| 1778004917 | 16.67° C | 43% | 1012 hPa | 0 mm | - | - | - |
| 1778002517 | 16.67° C | 45% | 1011.7 hPa | 0 mm | - | - | - |
| 1778000717 | 18.89° C | 38% | 1011.5 hPa | 0 mm | - | - | - |
| 1777999517 | 18.89° C | 38% | 1011.4 hPa | 0 mm | - | - | - |
| 1777998317 | 18.89° C | 38% | 1011.4 hPa | 0 mm | - | - | - |
| 1777996517 | 20° C | 33% | 1011.1 hPa | 0 mm | - | - | - |
| 1777995938 | 19.44° C | 34% | 1011.1 hPa | 0 mm | - | - | - |
| 1777992937 | 20° C | 35% | 1011.7 hPa | 0 mm | - | - | - |
| 1777989317 | 20° C | 33% | 1012.3 hPa | 0 mm | - | - | - |
| 1777987517 | 18.89° C | 38% | 1012.3 hPa | 0 mm | - | - | - |
| 1777986337 | 18.89° C | 37% | 1012.4 hPa | 0 mm | - | - | - |
| 1777985116 | 17.78° C | 40% | 1012.6 hPa | 0 mm | - | - | - |
| 1777979716 | 16.67° C | 51% | 1013.5 hPa | 0 mm | - | - | - |
| 1777978516 | 16.11° C | 54% | 1013.5 hPa | 0 mm | - | - | - |
| 1777976116 | 14.44° C | 58% | 1014 hPa | 0 mm | - | - | - |
| 1777975517 | 13.89° C | 58% | 1013.9 hPa | 0 mm | - | - | - |
| 1777973138 | 13.33° C | 60% | 1014 hPa | 0 mm | - | - | - |
| 1777967736 | 12.78° C | 61% | 1014.1 hPa | 0 mm | - | - | - |
| 1777967117 | 13.33° C | 60% | 1014.1 hPa | 0 mm | - | - | - |
| 1777965918 | 12.78° C | 61% | 1014 hPa | 0 mm | - | - | - |
| 1777965318 | 12.78° C | 60% | 1014 hPa | 0 mm | - | - | - |
| 1777963518 | 12.78° C | 62% | 1014.1 hPa | 0 mm | - | - | - |
| 1777956318 | 11.67° C | 64% | 1013.7 hPa | 0 mm | - | - | - |
| 1777955718 | 11.67° C | 63% | 1013.6 hPa | 0 mm | - | - | - |
| 1777954518 | 11.67° C | 64% | 1013.7 hPa | 0 mm | - | - | - |
* Rain latest hour (hover to see other rain measurements)
** Current wind speed in m/s (hover to see current wind gust speed)